Divinopolis de Goias, Brazil
Current Conditions -  °F | °C
As of 6:00 PM on Saturday 20 Dec 2014 (Local Time) from SBBR Reporting Station
Broken Clouds Broken Clouds  
Wind Chill: 75°   Ceiling: 8000
Heat Index: 75°   Visibility: 6mi
Dew Point: 66°   Wind: 13mph
Humidity: 73%   Direction: 360°N
Pressure: 29.97"   Gusts: NA
Location:  13.3°S, 46.39°W
Report Text: SBBR 202000Z 36011KT 9999 SCT030 FEW040TCU BKN080 24/19 Q1015
Loading
Personal Weather Stations






























Interactive Weather Map New forecast layout! Learn more

10-Day Weather Forecast

Advertisements
Track Severe Weather on mobile